Spangsville, Pennsylvania
Current Conditions -  °F | °C
As of 12:54 AM on Tuesday 27 Jan 2015 (Local Time) from KPTW Reporting Station
Overcast Overcast  
Wind Chill: 16°   Ceiling: 6000
Heat Index: 24°   Visibility: 10mi
Dew Point: 16°   Wind: 7mph
Humidity: 71%   Direction: NA
Pressure: 29.72"   Gusts: NA
Location:  40.3481°N, 75.6818°W
Report Text: KPTW 270554Z AUTO VRB06KT 10SM OVC060 M04/M09 A2972 RMK AO2 SLP064 60000 T10441089 11044 21056 58011
Loading
Personal Weather Stations






























Interactive Weather Map New forecast layout! Learn more

10-Day Weather Forecast

Advertisements
Track Severe Weather on mobile